Aviation Digital Data Service (ADDS)

Output produced by TAFs form (0629 UTC 27 March 2017)
found at http://www.aviationweather.gov/adds/tafs/
 
METAR text: VHHH 270600Z 11013KT 9999 FEW035 SCT045 23/04 Q1022 NOSIG
Conditions at: VHHH (HONG KONG INTL , HK) observed 0600 UTC 27 March 2017
Temperature: 23.0°C (73°F)
Dewpoint: 4.0°C (39°F) [RH = 29%]
Pressure (altimeter): 30.18 inches Hg (1022.0 mb)
Winds: from the ESE (110 degrees) at 15 MPH (13 knots; 6.8 m/s)
Visibility: 6 or more miles (10+ km)
Ceiling: at least 12,000 feet AGL
Clouds: few clouds at 3500 feet AGL
scattered clouds at 4500 feet AGL
Weather: no significant weather observed at this time

Forecast for: VHHH (HONG KONG INTL , HK)
Text: TAF VHHH 270500Z 2706/2812 10015KT 9999 FEW030 SCT045 TX23/2707Z TX24/2806Z TN17/2723Z
Forecast period: 0600 UTC 27 March 2017 to 1200 UTC 28 March 2017
Forecast type: FROM: standard forecast or significant change
Winds: from the E (100 degrees) at 17 MPH (15 knots; 7.8 m/s)
Visibility: 6 or more miles (10+ km)
Clouds: few clouds at 3000 feet AGL
scattered clouds at 4500 feet AGL
Weather: no significant weather forecast for this period